sensor_id;sensor_type;location;lat;lon;timestamp;P1;durP1;ratioP1;P2;durP2;ratioP2
78131;SDS011;67381;47.672;9.380;2024-02-21T00:01:50;8.93;;;5.10;;
78131;SDS011;67381;47.672;9.380;2024-02-21T00:04:17;10.27;;;6.32;;
78131;SDS011;67381;47.672;9.380;2024-02-21T00:06:44;7.80;;;4.57;;
78131;SDS011;67381;47.672;9.380;2024-02-21T00:09:12;8.73;;;5.40;;
78131;SDS011;67381;47.672;9.380;2024-02-21T00:11:39;10.13;;;4.80;;
78131;SDS011;67381;47.672;9.380;2024-02-21T00:14:06;8.77;;;4.20;;
78131;SDS011;67381;47.672;9.380;2024-02-21T00:16:33;8.63;;;4.78;;
78131;SDS011;67381;47.672;9.380;2024-02-21T00:19:00;7.53;;;4.15;;
78131;SDS011;67381;47.672;9.380;2024-02-21T00:21:27;7.93;;;4.07;;
78131;SDS011;67381;47.672;9.380;2024-02-21T00:23:54;9.75;;;4.47;;
78131;SDS011;67381;47.672;9.380;2024-02-21T00:26:21;9.20;;;4.38;;
78131;SDS011;67381;47.672;9.380;2024-02-21T00:28:49;14.23;;;3.75;;
78131;SDS011;67381;47.672;9.380;2024-02-21T00:31:16;9.88;;;5.07;;
78131;SDS011;67381;47.672;9.380;2024-02-21T00:33:43;9.77;;;3.75;;
78131;SDS011;67381;47.672;9.380;2024-02-21T00:36:10;8.68;;;3.95;;
78131;SDS011;67381;47.672;9.380;2024-02-21T00:38:37;10.27;;;3.78;;
78131;SDS011;67381;47.672;9.380;2024-02-21T00:41:05;11.32;;;4.82;;
78131;SDS011;67381;47.672;9.380;2024-02-21T00:43:32;8.90;;;3.80;;
78131;SDS011;67381;47.672;9.380;2024-02-21T00:45:59;8.30;;;4.50;;
78131;SDS011;67381;47.672;9.380;2024-02-21T00:48:26;12.13;;;4.63;;
78131;SDS011;67381;47.672;9.380;2024-02-21T00:50:53;9.77;;;4.60;;
78131;SDS011;67381;47.672;9.380;2024-02-21T00:53:20;11.73;;;4.50;;
78131;SDS011;67381;47.672;9.380;2024-02-21T00:55:47;14.32;;;4.85;;
78131;SDS011;67381;47.672;9.380;2024-02-21T00:58:14;10.10;;;4.18;;
78131;SDS011;67381;47.672;9.380;2024-02-21T01:00:41;6.60;;;3.17;;
78131;SDS011;67381;47.672;9.380;2024-02-21T01:03:08;9.68;;;4.93;;
78131;SDS011;67381;47.672;9.380;2024-02-21T01:05:35;9.02;;;4.38;;
78131;SDS011;67381;47.672;9.380;2024-02-21T01:08:03;11.65;;;5.38;;
78131;SDS011;67381;47.672;9.380;2024-02-21T01:10:30;8.55;;;3.75;;
78131;SDS011;67381;47.672;9.380;2024-02-21T01:12:57;9.18;;;4.22;;
78131;SDS011;67381;47.672;9.380;2024-02-21T01:15:24;11.32;;;4.35;;
78131;SDS011;67381;47.672;9.380;2024-02-21T01:17:51;8.50;;;4.13;;
78131;SDS011;67381;47.672;9.380;2024-02-21T01:20:21;6.13;;;3.83;;
78131;SDS011;67381;47.672;9.380;2024-02-21T01:22:48;8.45;;;4.20;;
78131;SDS011;67381;47.672;9.380;2024-02-21T01:25:15;9.45;;;4.18;;
78131;SDS011;67381;47.672;9.380;2024-02-21T01:27:42;8.32;;;3.70;;
78131;SDS011;67381;47.672;9.380;2024-02-21T01:30:10;9.10;;;4.47;;
78131;SDS011;67381;47.672;9.380;2024-02-21T01:32:40;7.10;;;4.15;;
78131;SDS011;67381;47.672;9.380;2024-02-21T01:35:08;8.02;;;3.53;;
78131;SDS011;67381;47.672;9.380;2024-02-21T01:37:35;6.93;;;4.10;;
78131;SDS011;67381;47.672;9.380;2024-02-21T01:40:02;9.00;;;4.38;;
78131;SDS011;67381;47.672;9.380;2024-02-21T01:42:30;12.85;;;4.32;;
78131;SDS011;67381;47.672;9.380;2024-02-21T01:44:57;7.63;;;5.18;;
78131;SDS011;67381;47.672;9.380;2024-02-21T01:47:24;9.15;;;4.03;;
78131;SDS011;67381;47.672;9.380;2024-02-21T01:49:51;11.18;;;4.88;;
78131;SDS011;67381;47.672;9.380;2024-02-21T01:52:18;9.05;;;4.30;;
78131;SDS011;67381;47.672;9.380;2024-02-21T01:54:45;9.50;;;5.40;;
78131;SDS011;67381;47.672;9.380;2024-02-21T01:57:13;11.00;;;4.00;;
78131;SDS011;67381;47.672;9.380;2024-02-21T01:59:41;10.13;;;4.30;;
78131;SDS011;67381;47.672;9.380;2024-02-21T02:02:09;10.32;;;4.93;;
78131;SDS011;67381;47.672;9.380;2024-02-21T02:04:37;11.93;;;4.25;;
78131;SDS011;67381;47.672;9.380;2024-02-21T02:07:04;5.72;;;3.83;;
78131;SDS011;67381;47.672;9.380;2024-02-21T02:09:33;7.68;;;4.55;;
78131;SDS011;67381;47.672;9.380;2024-02-21T02:12:00;8.18;;;4.53;;
78131;SDS011;67381;47.672;9.380;2024-02-21T02:14:28;7.85;;;3.92;;
78131;SDS011;67381;47.672;9.380;2024-02-21T02:16:55;7.90;;;3.95;;
78131;SDS011;67381;47.672;9.380;2024-02-21T02:19:22;8.85;;;3.83;;
78131;SDS011;67381;47.672;9.380;2024-02-21T02:21:49;9.63;;;4.43;;
78131;SDS011;67381;47.672;9.380;2024-02-21T02:24:23;6.07;;;3.95;;
78131;SDS011;67381;47.672;9.380;2024-02-21T02:26:51;11.45;;;4.82;;
78131;SDS011;67381;47.672;9.380;2024-02-21T02:29:18;6.88;;;4.05;;
78131;SDS011;67381;47.672;9.380;2024-02-21T02:31:45;6.20;;;3.55;;
78131;SDS011;67381;47.672;9.380;2024-02-21T02:34:13;10.13;;;4.47;;
78131;SDS011;67381;47.672;9.380;2024-02-21T02:36:40;5.95;;;3.72;;
78131;SDS011;67381;47.672;9.380;2024-02-21T02:39:07;6.57;;;3.05;;
78131;SDS011;67381;47.672;9.380;2024-02-21T02:41:36;12.10;;;4.00;;
78131;SDS011;67381;47.672;9.380;2024-02-21T02:44:03;8.30;;;3.58;;
78131;SDS011;67381;47.672;9.380;2024-02-21T02:46:31;7.75;;;3.60;;
78131;SDS011;67381;47.672;9.380;2024-02-21T02:48:58;9.18;;;4.07;;
78131;SDS011;67381;47.672;9.380;2024-02-21T02:51:25;8.13;;;3.05;;
78131;SDS011;67381;47.672;9.380;2024-02-21T02:53:52;6.95;;;3.78;;
78131;SDS011;67381;47.672;9.380;2024-02-21T02:56:19;7.53;;;3.42;;
78131;SDS011;67381;47.672;9.380;2024-02-21T02:58:46;5.10;;;3.10;;
78131;SDS011;67381;47.672;9.380;2024-02-21T03:01:13;9.52;;;4.05;;
78131;SDS011;67381;47.672;9.380;2024-02-21T03:03:40;8.88;;;3.70;;
78131;SDS011;67381;47.672;9.380;2024-02-21T03:06:07;5.68;;;3.35;;
78131;SDS011;67381;47.672;9.380;2024-02-21T03:08:34;10.40;;;5.32;;
78131;SDS011;67381;47.672;9.380;2024-02-21T03:11:01;6.18;;;3.45;;
78131;SDS011;67381;47.672;9.380;2024-02-21T03:13:28;5.43;;;4.07;;
78131;SDS011;67381;47.672;9.380;2024-02-21T03:15:55;6.55;;;4.32;;
78131;SDS011;67381;47.672;9.380;2024-02-21T03:18:23;6.15;;;3.58;;
78131;SDS011;67381;47.672;9.380;2024-02-21T03:20:50;6.72;;;4.30;;
78131;SDS011;67381;47.672;9.380;2024-02-21T03:23:18;8.55;;;3.65;;
78131;SDS011;67381;47.672;9.380;2024-02-21T03:25:45;7.68;;;4.22;;
78131;SDS011;67381;47.672;9.380;2024-02-21T03:28:12;8.38;;;4.53;;
78131;SDS011;67381;47.672;9.380;2024-02-21T03:30:39;7.20;;;4.13;;
78131;SDS011;67381;47.672;9.380;2024-02-21T03:33:06;6.28;;;3.85;;
78131;SDS011;67381;47.672;9.380;2024-02-21T03:35:33;8.73;;;4.00;;
78131;SDS011;67381;47.672;9.380;2024-02-21T03:38:00;7.65;;;3.30;;
78131;SDS011;67381;47.672;9.380;2024-02-21T03:40:27;5.88;;;3.42;;
78131;SDS011;67381;47.672;9.380;2024-02-21T03:42:55;6.68;;;3.13;;
78131;SDS011;67381;47.672;9.380;2024-02-21T03:45:24;12.38;;;4.57;;
78131;SDS011;67381;47.672;9.380;2024-02-21T03:47:51;8.00;;;4.03;;
78131;SDS011;67381;47.672;9.380;2024-02-21T03:50:18;9.40;;;3.88;;
78131;SDS011;67381;47.672;9.380;2024-02-21T03:52:46;7.00;;;4.35;;
78131;SDS011;67381;47.672;9.380;2024-02-21T03:55:13;5.90;;;3.58;;
78131;SDS011;67381;47.672;9.380;2024-02-21T03:57:40;8.02;;;4.63;;
78131;SDS011;67381;47.672;9.380;2024-02-21T04:00:08;7.65;;;5.47;;
78131;SDS011;67381;47.672;9.380;2024-02-21T04:02:37;6.95;;;4.88;;
78131;SDS011;67381;47.672;9.380;2024-02-21T04:05:04;9.00;;;4.60;;
78131;SDS011;67381;47.672;9.380;2024-02-21T04:07:32;10.68;;;4.30;;
78131;SDS011;67381;47.672;9.380;2024-02-21T04:09:59;8.30;;;4.50;;
78131;SDS011;67381;47.672;9.380;2024-02-21T04:12:27;10.05;;;3.95;;
78131;SDS011;67381;47.672;9.380;2024-02-21T04:14:54;8.25;;;3.83;;
78131;SDS011;67381;47.672;9.380;2024-02-21T04:17:21;7.38;;;4.82;;
78131;SDS011;67381;47.672;9.380;2024-02-21T04:19:48;9.40;;;4.13;;
78131;SDS011;67381;47.672;9.380;2024-02-21T04:22:15;7.28;;;4.18;;
78131;SDS011;67381;47.672;9.380;2024-02-21T04:24:42;6.55;;;3.72;;
78131;SDS011;67381;47.672;9.380;2024-02-21T04:27:09;9.75;;;4.40;;
78131;SDS011;67381;47.672;9.380;2024-02-21T04:29:36;8.85;;;4.40;;
78131;SDS011;67381;47.672;9.380;2024-02-21T04:32:03;6.07;;;4.20;;
78131;SDS011;67381;47.672;9.380;2024-02-21T04:34:31;6.05;;;3.50;;
78131;SDS011;67381;47.672;9.380;2024-02-21T04:36:58;6.45;;;3.33;;
78131;SDS011;67381;47.672;9.380;2024-02-21T04:39:26;8.63;;;3.80;;
78131;SDS011;67381;47.672;9.380;2024-02-21T04:41:53;11.82;;;4.15;;
78131;SDS011;67381;47.672;9.380;2024-02-21T04:44:20;6.32;;;3.45;;
78131;SDS011;67381;47.672;9.380;2024-02-21T04:46:49;9.48;;;3.35;;
78131;SDS011;67381;47.672;9.380;2024-02-21T04:49:16;8.23;;;3.88;;
78131;SDS011;67381;47.672;9.380;2024-02-21T04:51:43;6.47;;;3.35;;
78131;SDS011;67381;47.672;9.380;2024-02-21T04:54:11;5.13;;;3.25;;
78131;SDS011;67381;47.672;9.380;2024-02-21T04:56:38;5.68;;;2.75;;
78131;SDS011;67381;47.672;9.380;2024-02-21T04:59:05;6.63;;;3.83;;
78131;SDS011;67381;47.672;9.380;2024-02-21T05:01:32;4.13;;;2.88;;
78131;SDS011;67381;47.672;9.380;2024-02-21T05:03:59;5.72;;;2.40;;
78131;SDS011;67381;47.672;9.380;2024-02-21T05:06:26;6.25;;;2.95;;
78131;SDS011;67381;47.672;9.380;2024-02-21T05:08:53;5.13;;;3.97;;
78131;SDS011;67381;47.672;9.380;2024-02-21T05:11:22;8.07;;;3.38;;
78131;SDS011;67381;47.672;9.380;2024-02-21T05:13:49;6.35;;;3.00;;
78131;SDS011;67381;47.672;9.380;2024-02-21T05:16:16;11.63;;;3.45;;
78131;SDS011;67381;47.672;9.380;2024-02-21T05:18:43;6.03;;;3.03;;
78131;SDS011;67381;47.672;9.380;2024-02-21T05:21:11;4.07;;;2.90;;
78131;SDS011;67381;47.672;9.380;2024-02-21T05:23:38;4.35;;;2.05;;
78131;SDS011;67381;47.672;9.380;2024-02-21T05:26:06;4.63;;;2.60;;
78131;SDS011;67381;47.672;9.380;2024-02-21T05:28:33;4.00;;;2.35;;
78131;SDS011;67381;47.672;9.380;2024-02-21T05:31:00;5.82;;;3.70;;
78131;SDS011;67381;47.672;9.380;2024-02-21T05:33:27;6.00;;;2.90;;
78131;SDS011;67381;47.672;9.380;2024-02-21T05:35:54;5.07;;;3.00;;
78131;SDS011;67381;47.672;9.380;2024-02-21T05:38:21;4.45;;;3.25;;
78131;SDS011;67381;47.672;9.380;2024-02-21T05:40:48;5.22;;;3.08;;
78131;SDS011;67381;47.672;9.380;2024-02-21T05:43:16;4.20;;;2.45;;
78131;SDS011;67381;47.672;9.380;2024-02-21T05:45:43;4.45;;;2.55;;
78131;SDS011;67381;47.672;9.380;2024-02-21T05:48:10;7.13;;;3.20;;
78131;SDS011;67381;47.672;9.380;2024-02-21T05:50:37;4.00;;;2.70;;
78131;SDS011;67381;47.672;9.380;2024-02-21T05:53:04;3.83;;;2.63;;
78131;SDS011;67381;47.672;9.380;2024-02-21T05:55:31;3.65;;;2.42;;
78131;SDS011;67381;47.672;9.380;2024-02-21T05:57:58;5.32;;;2.78;;
78131;SDS011;67381;47.672;9.380;2024-02-21T06:00:26;4.55;;;2.55;;
78131;SDS011;67381;47.672;9.380;2024-02-21T06:02:53;9.77;;;2.40;;
78131;SDS011;67381;47.672;9.380;2024-02-21T06:05:20;5.55;;;2.72;;
78131;SDS011;67381;47.672;9.380;2024-02-21T06:07:47;5.32;;;3.00;;
78131;SDS011;67381;47.672;9.380;2024-02-21T06:10:14;6.25;;;2.55;;
78131;SDS011;67381;47.672;9.380;2024-02-21T06:12:41;3.70;;;2.53;;
78131;SDS011;67381;47.672;9.380;2024-02-21T06:15:08;3.83;;;2.33;;
78131;SDS011;67381;47.672;9.380;2024-02-21T06:17:35;5.05;;;2.45;;
78131;SDS011;67381;47.672;9.380;2024-02-21T06:20:03;3.92;;;2.45;;
78131;SDS011;67381;47.672;9.380;2024-02-21T06:22:30;3.80;;;2.28;;
78131;SDS011;67381;47.672;9.380;2024-02-21T06:24:57;4.85;;;2.80;;
78131;SDS011;67381;47.672;9.380;2024-02-21T06:27:25;4.68;;;2.65;;
78131;SDS011;67381;47.672;9.380;2024-02-21T06:29:52;4.82;;;2.20;;
78131;SDS011;67381;47.672;9.380;2024-02-21T06:32:19;3.78;;;2.45;;
78131;SDS011;67381;47.672;9.380;2024-02-21T06:34:46;4.25;;;2.35;;
78131;SDS011;67381;47.672;9.380;2024-02-21T06:37:13;3.60;;;2.00;;
78131;SDS011;67381;47.672;9.380;2024-02-21T06:39:40;4.40;;;2.67;;
78131;SDS011;67381;47.672;9.380;2024-02-21T06:42:07;3.60;;;2.10;;
78131;SDS011;67381;47.672;9.380;2024-02-21T06:44:34;4.13;;;1.90;;
78131;SDS011;67381;47.672;9.380;2024-02-21T06:47:07;5.07;;;2.65;;
78131;SDS011;67381;47.672;9.380;2024-02-21T06:49:35;4.95;;;3.05;;
78131;SDS011;67381;47.672;9.380;2024-02-21T06:52:04;3.47;;;2.47;;
78131;SDS011;67381;47.672;9.380;2024-02-21T06:54:31;3.65;;;1.95;;
78131;SDS011;67381;47.672;9.380;2024-02-21T06:56:58;4.05;;;1.70;;
78131;SDS011;67381;47.672;9.380;2024-02-21T06:59:25;3.47;;;1.90;;
78131;SDS011;67381;47.672;9.380;2024-02-21T07:01:53;4.57;;;2.05;;
78131;SDS011;67381;47.672;9.380;2024-02-21T07:04:21;3.38;;;2.28;;
78131;SDS011;67381;47.672;9.380;2024-02-21T07:06:48;3.60;;;1.90;;
78131;SDS011;67381;47.672;9.380;2024-02-21T07:09:15;3.05;;;1.60;;
78131;SDS011;67381;47.672;9.380;2024-02-21T07:11:42;3.88;;;2.05;;
78131;SDS011;67381;47.672;9.380;2024-02-21T07:14:09;4.47;;;2.58;;
78131;SDS011;67381;47.672;9.380;2024-02-21T07:16:36;3.67;;;2.20;;
78131;SDS011;67381;47.672;9.380;2024-02-21T07:19:03;3.10;;;2.28;;
78131;SDS011;67381;47.672;9.380;2024-02-21T07:21:30;4.97;;;2.30;;
78131;SDS011;67381;47.672;9.380;2024-02-21T07:23:57;6.05;;;1.75;;
78131;SDS011;67381;47.672;9.380;2024-02-21T07:26:24;5.60;;;2.38;;
78131;SDS011;67381;47.672;9.380;2024-02-21T07:28:51;5.70;;;2.70;;
78131;SDS011;67381;47.672;9.380;2024-02-21T07:31:18;6.75;;;2.03;;
78131;SDS011;67381;47.672;9.380;2024-02-21T07:33:45;4.60;;;1.95;;
78131;SDS011;67381;47.672;9.380;2024-02-21T07:36:14;5.07;;;2.10;;
78131;SDS011;67381;47.672;9.380;2024-02-21T07:38:42;3.85;;;1.90;;
78131;SDS011;67381;47.672;9.380;2024-02-21T07:41:08;7.20;;;3.08;;
78131;SDS011;67381;47.672;9.380;2024-02-21T07:43:35;3.25;;;1.85;;
78131;SDS011;67381;47.672;9.380;2024-02-21T07:46:03;4.38;;;2.45;;
78131;SDS011;67381;47.672;9.380;2024-02-21T07:48:30;4.40;;;2.55;;
78131;SDS011;67381;47.672;9.380;2024-02-21T07:50:57;5.70;;;2.55;;
78131;SDS011;67381;47.672;9.380;2024-02-21T07:53:24;7.25;;;3.13;;
78131;SDS011;67381;47.672;9.380;2024-02-21T07:55:51;4.97;;;3.20;;
78131;SDS011;67381;47.672;9.380;2024-02-21T07:58:18;3.60;;;2.20;;
78131;SDS011;67381;47.672;9.380;2024-02-21T08:00:46;4.85;;;3.00;;
78131;SDS011;67381;47.672;9.380;2024-02-21T08:03:13;6.05;;;3.08;;
78131;SDS011;67381;47.672;9.380;2024-02-21T08:05:42;4.85;;;2.50;;
78131;SDS011;67381;47.672;9.380;2024-02-21T08:08:09;4.18;;;2.13;;
78131;SDS011;67381;47.672;9.380;2024-02-21T08:10:36;4.50;;;2.72;;
78131;SDS011;67381;47.672;9.380;2024-02-21T08:13:03;6.32;;;2.10;;
78131;SDS011;67381;47.672;9.380;2024-02-21T08:15:30;4.90;;;2.22;;
78131;SDS011;67381;47.672;9.380;2024-02-21T08:17:57;3.80;;;2.25;;
78131;SDS011;67381;47.672;9.380;2024-02-21T08:20:31;3.22;;;1.83;;
78131;SDS011;67381;47.672;9.380;2024-02-21T08:22:58;5.03;;;2.33;;
78131;SDS011;67381;47.672;9.380;2024-02-21T08:25:25;3.33;;;2.00;;
78131;SDS011;67381;47.672;9.380;2024-02-21T08:27:58;3.70;;;2.20;;
78131;SDS011;67381;47.672;9.380;2024-02-21T08:30:26;5.97;;;1.55;;
78131;SDS011;67381;47.672;9.380;2024-02-21T08:32:53;5.22;;;2.40;;
78131;SDS011;67381;47.672;9.380;2024-02-21T08:35:23;4.65;;;1.65;;
78131;SDS011;67381;47.672;9.380;2024-02-21T08:37:50;3.40;;;2.03;;
78131;SDS011;67381;47.672;9.380;2024-02-21T08:40:18;5.63;;;2.30;;
78131;SDS011;67381;47.672;9.380;2024-02-21T08:42:47;3.20;;;1.75;;
78131;SDS011;67381;47.672;9.380;2024-02-21T08:45:14;3.35;;;1.80;;
78131;SDS011;67381;47.672;9.380;2024-02-21T08:47:41;5.53;;;2.50;;
78131;SDS011;67381;47.672;9.380;2024-02-21T08:50:08;6.63;;;2.47;;
78131;SDS011;67381;47.672;9.380;2024-02-21T08:52:40;4.75;;;2.10;;
78131;SDS011;67381;47.672;9.380;2024-02-21T08:55:08;2.70;;;1.42;;
78131;SDS011;67381;47.672;9.380;2024-02-21T08:57:35;8.63;;;1.85;;
78131;SDS011;67381;47.672;9.380;2024-02-21T09:00:04;4.57;;;2.65;;
78131;SDS011;67381;47.672;9.380;2024-02-21T09:02:39;4.95;;;2.90;;
78131;SDS011;67381;47.672;9.380;2024-02-21T09:05:06;5.38;;;2.55;;
78131;SDS011;67381;47.672;9.380;2024-02-21T09:07:33;7.32;;;2.65;;
78131;SDS011;67381;47.672;9.380;2024-02-21T09:10:04;5.13;;;2.50;;
78131;SDS011;67381;47.672;9.380;2024-02-21T09:12:31;3.75;;;2.42;;
78131;SDS011;67381;47.672;9.380;2024-02-21T09:14:58;4.38;;;2.30;;
78131;SDS011;67381;47.672;9.380;2024-02-21T09:17:25;5.43;;;2.75;;
78131;SDS011;67381;47.672;9.380;2024-02-21T09:19:53;6.43;;;2.95;;
78131;SDS011;67381;47.672;9.380;2024-02-21T09:22:21;5.95;;;2.17;;
78131;SDS011;67381;47.672;9.380;2024-02-21T09:24:48;4.32;;;2.65;;
78131;SDS011;67381;47.672;9.380;2024-02-21T09:27:15;3.78;;;2.55;;
78131;SDS011;67381;47.672;9.380;2024-02-21T09:29:43;4.40;;;2.60;;
78131;SDS011;67381;47.672;9.380;2024-02-21T09:32:10;6.15;;;2.50;;
78131;SDS011;67381;47.672;9.380;2024-02-21T09:34:37;7.22;;;3.05;;
78131;SDS011;67381;47.672;9.380;2024-02-21T09:37:04;3.78;;;2.22;;
78131;SDS011;67381;47.672;9.380;2024-02-21T09:39:31;5.70;;;2.65;;
78131;SDS011;67381;47.672;9.380;2024-02-21T09:42:07;4.55;;;3.22;;
78131;SDS011;67381;47.672;9.380;2024-02-21T09:44:37;7.70;;;3.10;;
78131;SDS011;67381;47.672;9.380;2024-02-21T09:47:10;4.82;;;3.03;;
78131;SDS011;67381;47.672;9.380;2024-02-21T09:49:40;5.10;;;2.75;;
78131;SDS011;67381;47.672;9.380;2024-02-21T09:52:08;5.05;;;3.10;;
78131;SDS011;67381;47.672;9.380;2024-02-21T09:54:35;6.95;;;4.13;;
78131;SDS011;67381;47.672;9.380;2024-02-21T09:57:03;13.63;;;9.18;;
78131;SDS011;67381;47.672;9.380;2024-02-21T09:59:31;6.30;;;4.13;;
78131;SDS011;67381;47.672;9.380;2024-02-21T10:01:58;6.50;;;3.75;;
78131;SDS011;67381;47.672;9.380;2024-02-21T10:04:29;8.88;;;4.50;;
78131;SDS011;67381;47.672;9.380;2024-02-21T10:06:56;7.82;;;4.45;;
78131;SDS011;67381;47.672;9.380;2024-02-21T10:09:24;6.38;;;4.07;;
78131;SDS011;67381;47.672;9.380;2024-02-21T10:11:55;7.28;;;4.30;;
78131;SDS011;67381;47.672;9.380;2024-02-21T10:14:22;6.18;;;4.38;;
78131;SDS011;67381;47.672;9.380;2024-02-21T10:16:56;7.55;;;4.93;;
78131;SDS011;67381;47.672;9.380;2024-02-21T10:19:25;10.60;;;4.93;;
78131;SDS011;67381;47.672;9.380;2024-02-21T10:22:02;6.57;;;4.25;;
78131;SDS011;67381;47.672;9.380;2024-02-21T10:24:30;6.53;;;4.57;;
78131;SDS011;67381;47.672;9.380;2024-02-21T10:27:02;11.73;;;6.40;;
78131;SDS011;67381;47.672;9.380;2024-02-21T10:29:30;8.77;;;4.95;;
78131;SDS011;67381;47.672;9.380;2024-02-21T10:32:04;10.45;;;6.68;;
78131;SDS011;67381;47.672;9.380;2024-02-21T10:34:32;9.93;;;6.72;;
78131;SDS011;67381;47.672;9.380;2024-02-21T10:37:00;9.50;;;6.25;;
78131;SDS011;67381;47.672;9.380;2024-02-21T10:39:27;11.95;;;6.68;;
78131;SDS011;67381;47.672;9.380;2024-02-21T10:41:56;9.07;;;4.53;;
78131;SDS011;67381;47.672;9.380;2024-02-21T10:44:26;5.00;;;3.10;;
78131;SDS011;67381;47.672;9.380;2024-02-21T10:46:54;5.75;;;3.20;;
78131;SDS011;67381;47.672;9.380;2024-02-21T10:49:23;6.85;;;2.40;;
78131;SDS011;67381;47.672;9.380;2024-02-21T10:52:06;3.33;;;1.90;;
78131;SDS011;67381;47.672;9.380;2024-02-21T10:57:19;5.95;;;4.35;;
78131;SDS011;67381;47.672;9.380;2024-02-21T10:59:49;9.40;;;4.30;;
78131;SDS011;67381;47.672;9.380;2024-02-21T11:02:16;8.80;;;4.75;;
78131;SDS011;67381;47.672;9.380;2024-02-21T11:04:44;6.65;;;4.07;;
78131;SDS011;67381;47.672;9.380;2024-02-21T11:07:11;5.97;;;3.65;;
78131;SDS011;67381;47.672;9.380;2024-02-21T11:09:38;4.53;;;2.30;;
78131;SDS011;67381;47.672;9.380;2024-02-21T11:12:06;6.18;;;2.42;;
78131;SDS011;67381;47.672;9.380;2024-02-21T11:14:33;4.40;;;2.28;;
78131;SDS011;67381;47.672;9.380;2024-02-21T11:17:14;5.05;;;2.50;;
78131;SDS011;67381;47.672;9.380;2024-02-21T11:19:41;3.28;;;2.08;;
78131;SDS011;67381;47.672;9.380;2024-02-21T11:22:14;4.32;;;2.65;;
78131;SDS011;67381;47.672;9.380;2024-02-21T11:24:41;7.22;;;2.78;;
78131;SDS011;67381;47.672;9.380;2024-02-21T11:27:13;8.27;;;3.38;;
78131;SDS011;67381;47.672;9.380;2024-02-21T11:29:53;7.72;;;3.25;;
78131;SDS011;67381;47.672;9.380;2024-02-21T11:32:21;5.25;;;3.25;;
78131;SDS011;67381;47.672;9.380;2024-02-21T11:34:55;4.90;;;3.25;;
78131;SDS011;67381;47.672;9.380;2024-02-21T11:37:24;5.50;;;2.90;;
78131;SDS011;67381;47.672;9.380;2024-02-21T11:39:52;5.38;;;2.50;;
78131;SDS011;67381;47.672;9.380;2024-02-21T11:42:19;4.57;;;3.28;;
78131;SDS011;67381;47.672;9.380;2024-02-21T11:44:47;7.60;;;4.22;;
78131;SDS011;67381;47.672;9.380;2024-02-21T11:47:14;8.52;;;3.72;;
78131;SDS011;67381;47.672;9.380;2024-02-21T11:49:45;5.00;;;2.67;;
78131;SDS011;67381;47.672;9.380;2024-02-21T11:52:12;4.57;;;2.83;;
78131;SDS011;67381;47.672;9.380;2024-02-21T11:54:42;7.13;;;3.90;;
78131;SDS011;67381;47.672;9.380;2024-02-21T11:57:09;6.15;;;3.25;;
78131;SDS011;67381;47.672;9.380;2024-02-21T11:59:37;6.55;;;2.90;;
78131;SDS011;67381;47.672;9.380;2024-02-21T12:02:04;5.47;;;3.30;;
78131;SDS011;67381;47.672;9.380;2024-02-21T12:04:31;4.95;;;2.92;;
78131;SDS011;67381;47.672;9.380;2024-02-21T12:06:58;5.43;;;3.00;;
78131;SDS011;67381;47.672;9.380;2024-02-21T12:09:25;13.20;;;4.38;;
78131;SDS011;67381;47.672;9.380;2024-02-21T12:11:59;4.97;;;2.90;;
78131;SDS011;67381;47.672;9.380;2024-02-21T12:14:27;6.13;;;3.60;;
78131;SDS011;67381;47.672;9.380;2024-02-21T12:16:55;4.68;;;2.97;;
78131;SDS011;67381;47.672;9.380;2024-02-21T12:19:22;4.03;;;2.72;;
78131;SDS011;67381;47.672;9.380;2024-02-21T12:21:50;7.13;;;3.67;;
78131;SDS011;67381;47.672;9.380;2024-02-21T12:24:22;4.00;;;2.67;;
78131;SDS011;67381;47.672;9.380;2024-02-21T12:26:50;7.70;;;3.05;;
78131;SDS011;67381;47.672;9.380;2024-02-21T12:29:19;4.97;;;3.00;;
78131;SDS011;67381;47.672;9.380;2024-02-21T12:31:46;7.35;;;2.53;;
78131;SDS011;67381;47.672;9.380;2024-02-21T12:34:14;4.55;;;2.47;;
78131;SDS011;67381;47.672;9.380;2024-02-21T12:36:42;5.82;;;3.53;;
78131;SDS011;67381;47.672;9.380;2024-02-21T12:39:11;7.30;;;3.35;;
78131;SDS011;67381;47.672;9.380;2024-02-21T12:41:38;5.60;;;2.97;;
78131;SDS011;67381;47.672;9.380;2024-02-21T12:44:05;5.90;;;3.63;;
78131;SDS011;67381;47.672;9.380;2024-02-21T12:46:35;5.70;;;3.50;;
78131;SDS011;67381;47.672;9.380;2024-02-21T12:49:02;4.40;;;3.00;;
78131;SDS011;67381;47.672;9.380;2024-02-21T12:51:30;5.03;;;2.70;;
78131;SDS011;67381;47.672;9.380;2024-02-21T12:53:57;6.50;;;2.83;;
78131;SDS011;67381;47.672;9.380;2024-02-21T12:56:25;6.55;;;2.35;;
78131;SDS011;67381;47.672;9.380;2024-02-21T12:58:57;6.18;;;2.83;;
78131;SDS011;67381;47.672;9.380;2024-02-21T13:01:24;5.63;;;2.72;;
78131;SDS011;67381;47.672;9.380;2024-02-21T13:03:53;4.82;;;2.95;;
78131;SDS011;67381;47.672;9.380;2024-02-21T13:06:20;6.10;;;3.10;;
78131;SDS011;67381;47.672;9.380;2024-02-21T13:08:48;5.78;;;3.00;;
78131;SDS011;67381;47.672;9.380;2024-02-21T13:11:15;5.88;;;2.83;;
78131;SDS011;67381;47.672;9.380;2024-02-21T13:13:42;6.60;;;2.78;;
78131;SDS011;67381;47.672;9.380;2024-02-21T13:16:09;4.85;;;2.63;;
78131;SDS011;67381;47.672;9.380;2024-02-21T13:18:37;8.23;;;3.97;;
78131;SDS011;67381;47.672;9.380;2024-02-21T13:21:09;5.20;;;2.67;;
78131;SDS011;67381;47.672;9.380;2024-02-21T13:23:36;4.20;;;2.97;;
78131;SDS011;67381;47.672;9.380;2024-02-21T13:26:03;5.53;;;3.08;;
78131;SDS011;67381;47.672;9.380;2024-02-21T13:28:31;8.20;;;3.17;;
78131;SDS011;67381;47.672;9.380;2024-02-21T13:30:58;4.85;;;2.97;;
78131;SDS011;67381;47.672;9.380;2024-02-21T13:33:25;8.27;;;3.17;;
78131;SDS011;67381;47.672;9.380;2024-02-21T13:35:52;5.03;;;2.97;;
78131;SDS011;67381;47.672;9.380;2024-02-21T13:38:19;5.20;;;3.20;;
78131;SDS011;67381;47.672;9.380;2024-02-21T13:40:46;5.13;;;2.83;;
78131;SDS011;67381;47.672;9.380;2024-02-21T13:43:17;6.60;;;3.22;;
78131;SDS011;67381;47.672;9.380;2024-02-21T13:45:54;5.38;;;2.90;;
78131;SDS011;67381;47.672;9.380;2024-02-21T13:48:22;5.80;;;2.95;;
78131;SDS011;67381;47.672;9.380;2024-02-21T13:50:49;5.40;;;3.67;;
78131;SDS011;67381;47.672;9.380;2024-02-21T13:53:16;4.78;;;3.00;;
78131;SDS011;67381;47.672;9.380;2024-02-21T13:55:45;6.30;;;3.45;;
78131;SDS011;67381;47.672;9.380;2024-02-21T13:58:12;7.30;;;3.67;;
78131;SDS011;67381;47.672;9.380;2024-02-21T14:00:39;5.93;;;4.28;;
78131;SDS011;67381;47.672;9.380;2024-02-21T14:03:06;6.72;;;3.63;;
78131;SDS011;67381;47.672;9.380;2024-02-21T14:05:34;6.75;;;4.22;;
78131;SDS011;67381;47.672;9.380;2024-02-21T14:08:01;7.15;;;4.07;;
78131;SDS011;67381;47.672;9.380;2024-02-21T14:10:28;8.10;;;3.67;;
78131;SDS011;67381;47.672;9.380;2024-02-21T14:12:55;7.25;;;2.88;;
78131;SDS011;67381;47.672;9.380;2024-02-21T14:15:23;5.55;;;2.78;;
78131;SDS011;67381;47.672;9.380;2024-02-21T14:17:51;10.18;;;3.78;;
78131;SDS011;67381;47.672;9.380;2024-02-21T14:20:18;5.25;;;3.28;;
78131;SDS011;67381;47.672;9.380;2024-02-21T14:22:46;6.47;;;4.03;;
78131;SDS011;67381;47.672;9.380;2024-02-21T14:25:13;4.47;;;2.70;;
78131;SDS011;67381;47.672;9.380;2024-02-21T14:27:42;5.20;;;2.70;;
78131;SDS011;67381;47.672;9.380;2024-02-21T14:30:10;5.88;;;3.63;;
78131;SDS011;67381;47.672;9.380;2024-02-21T14:32:38;4.38;;;3.33;;
78131;SDS011;67381;47.672;9.380;2024-02-21T14:35:05;5.40;;;3.22;;
78131;SDS011;67381;47.672;9.380;2024-02-21T14:37:33;5.07;;;2.85;;
78131;SDS011;67381;47.672;9.380;2024-02-21T14:40:00;4.03;;;2.67;;
78131;SDS011;67381;47.672;9.380;2024-02-21T14:42:30;4.80;;;2.88;;
78131;SDS011;67381;47.672;9.380;2024-02-21T14:44:57;3.90;;;2.30;;
78131;SDS011;67381;47.672;9.380;2024-02-21T14:47:31;7.40;;;3.55;;
78131;SDS011;67381;47.672;9.380;2024-02-21T14:49:59;4.93;;;2.83;;
78131;SDS011;67381;47.672;9.380;2024-02-21T14:52:26;6.18;;;3.10;;